Flight Track Log - Related Links

Times and Time Zones

All times are in EDT time to prevent confusion due to time zone crossing. See the N201CR flight status page for this flight to view local times or setup timezone preferences in your user account.

Time Position Orientation Groundspeed Altitude Reporting Facility
EDT Latitude Longitude Course Direction KTS MPH feet Rate Location/Type
Thu 03:14:18 PM 26.6825 -79.8514 127° Southeast 285 328 7,000  Level Miami Center
Thu 03:15:18 PM 26.6803 -79.7583 92° East 295 339 9,200 2,500 Climbing Miami Center
Thu 03:16:18 PM 26.6592 -79.6669 104° East 295 339 12,000 3,050 Climbing Miami Center
Thu 03:17:00 PM 26.2810 -79.4867 90° East  Level Estimated
Thu 03:17:18 PM 26.6103 -79.5939 127° Southeast 288 331 15,300  Level Miami Center
Thu 03:18:00 PM 26.2137 -79.3856 90° East  Level Estimated
Thu 03:18:18 PM 26.5639 -79.5161 124° Southeast 294 338 16,800  Level Miami Center
Thu 03:19:00 PM 26.1463 -79.2847 127° Southeast  Level Estimated
Thu 03:19:18 PM 26.5150 -79.4383 125° Southeast 320 368 18,000  Level Miami Center
Thu 03:20:18 PM 26.4542 -79.3350 123° Southeast 344 396 19,500 1,200 Climbing Miami Center
Thu 03:21:18 PM 26.3972 -79.2386 123° Southeast 371 427 20,400 950 Climbing Miami Center
Thu 03:22:18 PM 26.3319 -79.1378 126° Southeast 383 441 21,400 1,000 Climbing Miami Center
Thu 03:23:18 PM 26.2689 -79.0322 124° Southeast 399 459 22,400 1,000 Climbing Miami Center
Thu 03:24:18 PM 26.2036 -78.9269 125° Southeast 406 467 23,400 1,000 Climbing Miami Center
Thu 03:25:18 PM 26.1361 -78.8192 125° Southeast 411 473 24,400 1,000 Climbing Miami Center
Thu 03:26:18 PM 26.0706 -78.7117 124° Southeast 417 480 25,400 1,000 Climbing Miami Center
Thu 03:27:18 PM 26.0111 -78.6161 125° Southeast 422 486 26,400 1,050 Climbing Miami Center
Thu 03:28:18 PM 25.9436 -78.5042 124° Southeast 429 494 27,500 1,050 Climbing Miami Center
Thu 03:29:18 PM 25.8736 -78.3947 125° Southeast 434 499 28,500 1,000 Climbing Miami Center
Thu 03:30:18 PM 25.8058 -78.2853 125° Southeast 434 499 29,500 1,000 Climbing Miami Center
Thu 03:31:18 PM 25.7358 -78.1761 125° Southeast 434 499 30,500 1,000 Climbing Miami Center
Thu 03:32:18 PM 25.6658 -78.0622 124° Southeast 434 499 31,500 1,000 Climbing Miami Center
Thu 03:33:18 PM 25.5956 -77.9511 125° Southeast 434 499 32,500 1,000 Climbing Miami Center
Thu 03:34:18 PM 25.5339 -77.8214 118° Southeast 434 499 33,500 1,000 Climbing Miami Center
Thu 03:35:18 PM 25.4803 -77.6967 115° Southeast 434 499 34,500 1,000 Climbing Miami Center
Thu 03:36:18 PM 25.4286 -77.5744 115° Southeast 439 505 35,500 950 Climbing Miami Center
Thu 03:37:18 PM 25.3831 -77.4614 114° Southeast 439 505 36,400 1,000 Climbing Miami Center
Thu 03:38:18 PM 25.3250 -77.3369 117° Southeast 444 511 37,500 1,050 Climbing Miami Center
Thu 03:39:18 PM 25.2522 -77.2242 125° Southeast 449 517 38,500 1,000 Climbing Miami Center
Thu 03:40:18 PM 25.1772 -77.1114 126° Southeast 454 522 39,500 1,000 Climbing Miami Center
Thu 03:41:18 PM 25.1022 -77.0011 127° Southeast 454 522 40,500 750 Climbing Miami Center
Thu 03:42:18 PM 25.0269 -76.8886 126° Southeast 454 522 41,000 250 Climbing Miami Center
Thu 03:43:18 PM 24.9494 -76.7717 126° Southeast 466 536 41,000  Level Miami Center
Thu 03:44:18 PM 24.8722 -76.6550 126° Southeast 471 542 41,000  Level Miami Center
Thu 03:45:18 PM 24.7947 -76.5383 126° Southeast 471 542 41,000  Level Miami Center
Thu 03:46:18 PM 24.7192 -76.4242 126° Southeast 471 542 41,000  Level Miami Center
Thu 03:47:18 PM 24.6456 -76.3056 124° Southeast 471 542 41,000  Level Miami Center
Thu 03:48:18 PM 24.5678 -76.1983 129° Southeast 471 542 41,000  Level Miami Center
Thu 03:49:18 PM 24.4897 -76.0800 126° Southeast 466 536 41,000  Level Miami Center
Thu 03:50:18 PM 24.4139 -75.9664 126° Southeast 466 536 41,000  Level Miami Center
Thu 03:51:18 PM 24.3381 -75.8508 126° Southeast 466 536 41,000  Level Miami Center
Thu 03:52:18 PM 24.2533 -75.7261 127° Southeast 466 536 41,000  Level Miami Center
Thu 03:53:18 PM 24.1772 -75.6106 126° Southeast 466 536 41,000  Level Miami Center
Thu 03:54:18 PM 24.1011 -75.4975 126° Southeast 466 536 41,000  Level Miami Center
Thu 03:55:18 PM 24.0225 -75.3800 126° Southeast 472 543 41,000  Level Miami Center
Thu 03:56:18 PM 23.9461 -75.2672 127° Southeast 472 543 41,000  Level Miami Center
Thu 03:57:18 PM 23.8678 -75.1547 127° Southeast 472 543 41,000  Level Miami Center
Thu 03:58:18 PM 23.7889 -75.0378 126° Southeast 472 543 41,000  Level Miami Center
Thu 03:59:18 PM 23.7122 -74.9253 127° Southeast 472 543 41,000  Level Miami Center
Thu 04:00:18 PM 23.6336 -74.8108 127° Southeast 472 543 41,000  Level Miami Center
Thu 04:01:18 PM 23.5567 -74.7011 127° Southeast 472 543 41,000  Level Miami Center
Thu 04:02:18 PM 23.4797 -74.5892 127° Southeast 466 536 41,000  Level Miami Center
Thu 04:03:18 PM 23.4008 -74.4750 127° Southeast 466 536 41,000  Level Miami Center
Thu 04:04:18 PM 23.3258 -74.3633 126° Southeast 466 536 41,000  Level Miami Center
Thu 04:05:18 PM 23.2636 -74.2719 127° Southeast 466 536 41,000  Level Miami Center
Thu 04:06:18 PM 23.1781 -74.1517 128° Southeast 466 536 41,000  Level Miami Center
Thu 04:07:18 PM 23.1008 -74.0403 127° Southeast 466 536 41,000  Level Miami Center
Thu 04:08:18 PM 23.0233 -73.9314 128° Southeast 461 531 41,000  Level Miami Center
Thu 04:09:18 PM 22.9481 -73.8181 126° Southeast 461 531 41,000  Level Miami Center
Thu 04:10:18 PM 22.8664 -73.7097 129° Southeast 461 531 41,000  Level Miami Center
Thu 04:11:18 PM 22.7889 -73.5967 127° Southeast 461 531 41,000  Level Miami Center
Thu 04:12:18 PM 22.7050 -73.4861 129° Southeast 461 531 41,000  Level Miami Center
Thu 04:13:18 PM 22.6336 -73.3733 124° Southeast 461 531 41,000  Level Miami Center
Thu 04:14:18 PM 22.5494 -73.2631 130° Southeast 461 531 41,000  Level Miami Center
Thu 04:15:18 PM 22.4692 -73.1372 125° Southeast 461 531 41,000  Level Miami Center
Thu 04:16:18 PM 22.3892 -73.0250 128° Southeast 466 536 41,000  Level Miami Center
Thu 04:17:18 PM 22.3111 -72.9131 127° Southeast 466 536 41,000  Level Miami Center
Thu 04:18:18 PM 22.2308 -72.8008 128° Southeast 471 542 41,000  Level Miami Center
Thu 04:19:18 PM 22.1506 -72.6869 127° Southeast 471 542 41,000  Level Miami Center
Thu 04:20:18 PM 22.0703 -72.5775 128° Southeast 471 542 41,000  Level Miami Center
Thu 04:21:18 PM 21.9900 -72.4658 128° Southeast 471 542 41,000  Level Miami Center
Thu 04:22:18 PM 21.9117 -72.3567 128° Southeast 471 542 41,000  Level Miami Center
Thu 04:23:18 PM 21.8308 -72.2433 128° Southeast 471 542 41,000  Level Miami Center
Thu 04:24:18 PM 21.7525 -72.1342 128° Southeast 471 542 41,000  Level Miami Center
Thu 04:25:18 PM 21.6719 -72.0256 129° Southeast 471 542 41,000  Level Miami Center
Thu 04:26:18 PM 21.5953 -71.9144 127° Southeast 471 542 41,000  Level Miami Center
Thu 04:27:18 PM 21.5144 -71.8061 129° Southeast 471 542 41,000  Level Miami Center
Thu 04:28:18 PM 21.4358 -71.6975 128° Southeast 471 542 41,000  Level Miami Center
Thu 04:29:18 PM 21.3550 -71.5894 129° Southeast 471 542 41,000  Level Miami Center
Thu 04:30:18 PM 21.2742 -71.4811 129° Southeast 471 542 41,000  Level Miami Center
Thu 04:31:18 PM 21.1931 -71.3711 128° Southeast 471 542 41,000  Level Miami Center
Thu 04:32:18 PM 21.1139 -71.2608 128° Southeast 471 542 41,000  Level Miami Center
Thu 04:33:18 PM 21.0369 -71.1508 127° Southeast 471 542 41,000 -400 Level Miami Center
Thu 04:34:18 PM 20.9556 -71.0411 128° Southeast 471 542 40,200 -850 Descending Miami Center
Thu 04:35:18 PM 20.8764 -70.9336 128° Southeast 471 542 39,300 -600 Descending Miami Center
Thu 04:36:18 PM 20.7953 -70.8261 129° Southeast 471 542 39,000 -150 Descending Miami Center
Thu 04:37:18 PM 20.7181 -70.7189 128° Southeast 471 542 39,000  Level Miami Center
Thu 04:38:18 PM 20.6386 -70.6117 128° Southeast 471 542 39,000  Level Miami Center
Thu 04:39:18 PM 20.5572 -70.5047 129° Southeast 471 542 39,000  Level Miami Center
Thu 04:40:18 PM 20.4778 -70.3978 128° Southeast 466 536 39,000  Level Miami Center
Thu 04:41:18 PM 20.3983 -70.2889 128° Southeast 466 536 39,000 -800 Level Miami Center
Thu 04:42:18 PM 20.3144 -70.1803 129° Southeast 466 536 37,400 -2,250 Descending Miami Center
Thu 04:43:18 PM 20.2350 -70.0761 129° Southeast 466 536 34,500 -2,900 Descending Miami Center
Thu 04:44:18 PM 20.1553 -69.9675 128° Southeast 466 536 31,600 -2,650 Descending Miami Center
Thu 04:45:18 PM 20.0669 -69.8572 130° Southeast 472 543 29,200 -2,200 Descending Miami Center
Thu 04:46:18 PM 19.9869 -69.7422 126° Southeast 478 550 27,200 -2,000 Descending Miami Center
Thu 04:48:00 PM 19.8312 -69.6239 155° Southeast  Level FlightAware Approximate
Thu 04:55:00 PM 19.0890 -69.2710 157° South  Level FlightAware Approximate
Thu 04:56:00 PM 18.9817 -69.2233 157° South  Level FlightAware Approximate
Thu 04:57:00 PM 18.8761 -69.1713 155° Southeast  Level FlightAware Approximate
Thu 04:58:00 PM 18.7708 -69.1187 155° Southeast  Level FlightAware Approximate
Thu 04:59:00 PM 18.6635 -69.0708 157° South  Level FlightAware Approximate
Thu 05:00:00 PM 18.5620 -69.0120 137° Southeast  Level FlightAware Approximate
Thu 05:01:00 PM 18.4563 -68.9632 162° South  Level FlightAware Approximate
Thu 05:02:00 PM 18.4507 -68.9118 90° East  Level Estimated
Thu 05:03:00 PM 18.4507 -68.9118 90° East  Level Estimated
Thu 05:04:00 PM 18.4507 -68.9118 90° East  Level Estimated
Thu 05:05:00 PM 18.4507 -68.9118 90° East  Level Estimated
Thu 05:06:00 PM 18.4507 -68.9118 90° East  Level Estimated
Thu 05:07:00 PM 18.4507 -68.9118 90° East  Level Estimated
Thu 05:08:00 PM 18.4507 -68.9118 90° East  Level Estimated
Thu 05:09:00 PM 18.4507 -68.9118 90° East  Level Estimated
Thu 05:10:00 PM 18.4507 -68.9118 90° East  Level Estimated
Thu 05:11:00 PM 18.4507 -68.9118 90° East  Level Estimated
Thu 05:12:00 PM 18.4507 -68.9118 90° East  Level Estimated
Thu 05:13:00 PM 18.4507 -68.9118 90° East  Level Estimated
Thu 05:14:00 PM 18.4507 -68.9118 90° East  Level Estimated
Thu 05:15:00 PM 18.4507 -68.9118 90° East  Level Estimated
Thu 05:16:00 PM 18.4507 -68.9118 90° East  Level Estimated
Thu 05:17:00 PM 18.4507 -68.9118 90° East  Level Estimated
Thu 05:18:00 PM 18.4507 -68.9118 90° East  Level Estimated
Thu 05:19:00 PM 18.4507 -68.9118 90° East  Level Estimated
Thu 05:20:00 PM 18.4507 -68.9118 90° East  Level Estimated
Thu 05:21:00 PM 18.4507 -68.9118 90° East  Level Estimated
Thu 05:22:00 PM 18.4507 -68.9118 90° East  Level Estimated

Login

Don't have an account? Register now (free) for customized features, flight alerts, and more!